Contact Us:
Email: info@sawbill.com
Phone: (218)663-7150
Fax: (218)663-7980
Mail: 4620 Sawbill Trail
Box 2129
Tofte, MN 55615


Powered by
Movable Type 3.15
 
Sawbill Weather History Archives: December 2009
Current Sawbill Weather History | « November 2009 | January 2010 »


Date

High
Temperature

Low
Temperature

Barometric
Pressure

Relative
Humidity 7AM

9 AM
Temperature

Moisture

Snow

12/31/09 14 -3 30.45 74% -3 Trace Trace
12/30/09 14 6 30.42 80% 7 0
12/29/09 13 -4 30.00 74% 8 0
12/28/09 6 -6 30.42 74% -4 0
12/27/09 24 5 30.21 74% 5 .1" 1"
12/26/09 32 5 30.00 91% 19 .05" .5"
12/25/09 32 29 29.88 98% 32 .34" 3.5"
12/24/09 32 26 30.00 98% 31 .25" 2.5"
12/23/09 26 17 30.36 91% 26 Trace Trace
12/22/09 20 9 29.92 89% 17 0
12/21/09 19 9 30.18 89% 16 .17" 3.5"
12/20/09 19 6 30.30 69% 16 0
12/19/09 12 -3 30.24 74% 9 Trace Trace
12/18/09 21 7 30.33 74% 7 Trace Trace
12/17/09 19 16 30.27 83% 18 .03" .5"
12/16/09 16 -8 30.36 74% 16 0
12/15/09 -5 -10 30.50 74% -8 0
12/14/09 4 -9 30.30 74% -9 0
12/13/09 0 -6 30.18 74% -4 0
12/12/09 20 -5 30.09 74% -5 0
12/11/09 3 -11 30.12 66% 16 0
12/10/09 -1 -11 30.03 66% -11 0
12/9/09 4 -5 29.80 60% -5 .05" .5"
12/8/09 9 -3 29.80 66% 2 .07" .5"
12/7/09 16 -3 30.36 66% -3 Trace Trace
12/6/09 16 8 30.42 74% 9 Trace Trace
12/5/09 15 2 30.36 68% 8 0
12/4/09 17 3 30.09 70% 4 .05" .75"
12/3/09 16 12 30.06 79% 12 .03" .75"
12/2/09 23 13 30.12 81% 14 Trace Trace
12/1/09 30 20 30.12 87% 20 .15" 1.5"
 


Home I Trip Planning I Rentals and Outfitting I Reservations I Campgrounds I Sawbill Store I Sawbill News I Contact

© 1997 - 2017, Sawbill Canoe Outfitters, Inc. I Privacy Policy